createdAt,value
2017-04-05T00:00:11.041Z,11.66
2017-04-05T00:00:51.935Z,11.63
2017-04-05T00:01:32.824Z,11.6
2017-04-05T00:02:13.726Z,11.59
2017-04-05T00:02:54.603Z,11.68
2017-04-05T00:03:35.483Z,11.66
2017-04-05T00:04:16.351Z,11.7
2017-04-05T00:04:57.241Z,11.7
2017-04-05T00:05:38.135Z,11.59
2017-04-05T00:06:19.008Z,11.63
2017-04-05T00:06:59.895Z,11.62
2017-04-05T00:07:40.779Z,11.68
2017-04-05T00:08:21.667Z,11.69
2017-04-05T00:09:02.543Z,11.68
2017-04-05T00:09:43.431Z,11.65
2017-04-05T00:10:24.316Z,11.62
2017-04-05T00:11:05.211Z,11.68
2017-04-05T00:11:46.085Z,11.68
2017-04-05T00:12:26.967Z,11.68
2017-04-05T00:13:07.863Z,11.69
2017-04-05T00:13:48.737Z,11.68
2017-04-05T00:14:29.609Z,11.68
2017-04-05T00:15:10.494Z,11.68
2017-04-05T00:15:51.381Z,11.68
2017-04-05T00:16:32.254Z,11.68
2017-04-05T00:17:13.170Z,11.62
2017-04-05T00:17:54.050Z,11.66
2017-04-05T00:18:34.934Z,11.62
2017-04-05T00:19:15.808Z,11.63
2017-04-05T00:19:56.684Z,11.57
2017-04-05T00:20:37.571Z,11.63
2017-04-05T00:21:18.457Z,11.59
2017-04-05T00:21:59.342Z,11.6
2017-04-05T00:22:40.222Z,11.6
2017-04-05T00:23:21.112Z,11.62
2017-04-05T00:24:01.991Z,11.6
2017-04-05T00:24:42.872Z,11.57
2017-04-05T00:25:23.752Z,11.62
2017-04-05T00:26:04.638Z,11.54
2017-04-05T00:26:45.523Z,11.52
2017-04-05T00:27:26.403Z,11.52
2017-04-05T00:28:07.283Z,11.57
2017-04-05T00:28:48.172Z,11.57
2017-04-05T00:29:29.054Z,11.6
2017-04-05T00:30:09.920Z,11.57
2017-04-05T00:30:50.796Z,11.57
2017-04-05T00:31:31.667Z,11.57
2017-04-05T00:32:12.552Z,11.62
2017-04-05T00:32:53.441Z,11.5
2017-04-05T00:33:34.330Z,11.54
2017-04-05T00:34:15.205Z,11.52
2017-04-05T00:34:56.101Z,11.47
2017-04-05T00:35:36.993Z,11.52
2017-04-05T00:36:17.866Z,11.5
2017-04-05T00:36:58.740Z,11.41
2017-04-05T00:37:39.624Z,11.54
2017-04-05T00:38:20.507Z,11.47
2017-04-05T00:39:01.390Z,11.44
2017-04-05T00:39:42.266Z,11.48
2017-04-05T00:40:23.175Z,11.47
2017-04-05T00:41:04.071Z,11.41
2017-04-05T00:41:44.957Z,11.5
2017-04-05T00:42:25.843Z,11.5
2017-04-05T00:43:06.723Z,11.44
2017-04-05T00:43:47.607Z,11.43
2017-04-05T00:44:28.482Z,11.47
2017-04-05T00:45:09.385Z,11.47
2017-04-05T00:45:50.268Z,11.35
2017-04-05T00:46:31.143Z,11.44
2017-04-05T00:47:12.019Z,11.33
2017-04-05T00:47:52.905Z,11.26
2017-04-05T00:48:33.790Z,11.29
2017-04-05T00:49:14.670Z,11.26
2017-04-05T00:49:55.533Z,11.23
2017-04-05T00:50:36.409Z,11.22
2017-04-05T00:51:17.289Z,11.26
2017-04-05T00:51:58.173Z,11.35
2017-04-05T00:52:39.065Z,11.33
2017-04-05T00:53:19.923Z,11.41
2017-04-05T00:54:00.800Z,11.32
2017-04-05T00:54:41.685Z,11.36
2017-04-05T00:55:22.577Z,11.27
2017-04-05T00:56:03.453Z,11.32
2017-04-05T00:56:44.332Z,11.35
2017-04-05T00:57:25.220Z,11.32
2017-04-05T00:58:06.111Z,11.35
2017-04-05T00:58:46.984Z,11.29
2017-04-05T00:59:27.864Z,11.22
2017-04-05T01:00:08.760Z,11.25
2017-04-05T01:00:49.635Z,11.14
2017-04-05T01:01:30.522Z,11.26
2017-04-05T01:02:11.399Z,11.19
2017-04-05T01:02:52.272Z,11.23
2017-04-05T01:03:33.160Z,11.12
2017-04-05T01:04:14.050Z,11.22
2017-04-05T01:04:54.927Z,11.23
2017-04-05T01:05:35.814Z,11.19
2017-04-05T01:06:16.701Z,11.22
2017-04-05T01:06:57.587Z,11.18
2017-04-05T01:07:38.467Z,11.19
2017-04-05T01:08:19.363Z,11.23
2017-04-05T01:09:00.248Z,11.22
2017-04-05T01:09:41.126Z,11.18
2017-04-05T01:10:22.000Z,11.22
2017-04-05T01:11:02.888Z,11.23
2017-04-05T01:11:43.783Z,11.19
2017-04-05T01:12:24.669Z,11.18
2017-04-05T01:13:05.555Z,11.19
2017-04-05T01:13:46.438Z,11.17
2017-04-05T01:14:27.331Z,11.19
2017-04-05T01:15:08.202Z,11.19
2017-04-05T01:15:49.124Z,11.17
2017-04-05T01:16:30.016Z,11.14
2017-04-05T01:17:10.883Z,11.26
2017-04-05T01:17:51.756Z,11.15
2017-04-05T01:18:32.632Z,11.1
2017-04-05T01:19:13.517Z,11.08
2017-04-05T01:19:54.405Z,11.1
2017-04-05T01:20:35.263Z,11.08
2017-04-05T01:21:16.136Z,11.32
2017-04-05T01:21:57.023Z,11.17
2017-04-05T01:22:37.906Z,11.17
2017-04-05T01:23:18.795Z,11.17
2017-04-05T01:23:59.668Z,11.25
2017-04-05T01:24:40.559Z,11.23
2017-04-05T01:25:21.450Z,11.19
2017-04-05T01:26:02.326Z,11.23
2017-04-05T01:26:43.201Z,11.3
2017-04-05T01:27:24.088Z,11.25
2017-04-05T01:28:04.972Z,11.29
2017-04-05T01:28:45.846Z,11.22
2017-04-05T01:29:26.733Z,11.25
2017-04-05T01:30:07.621Z,11.23
2017-04-05T01:30:48.504Z,11.25
2017-04-05T01:31:29.391Z,11.23
2017-04-05T01:32:10.272Z,11.15
2017-04-05T01:32:51.154Z,11.11
2017-04-05T01:33:32.039Z,11.14
2017-04-05T01:34:12.922Z,11.08
2017-04-05T01:34:53.811Z,11.22
2017-04-05T01:35:34.688Z,11.19
2017-04-05T01:36:15.579Z,11.15
2017-04-05T01:36:56.466Z,11.05
2017-04-05T01:37:37.339Z,11.07
2017-04-05T01:38:18.224Z,11
2017-04-05T01:38:59.125Z,11.04
2017-04-05T01:39:40.002Z,11.1
2017-04-05T01:40:20.885Z,11.18
2017-04-05T01:41:01.789Z,11.26
2017-04-05T01:41:42.680Z,11.22
2017-04-05T01:42:23.557Z,11.12
2017-04-05T01:43:04.431Z,11.15
2017-04-05T01:43:45.316Z,11.11
2017-04-05T01:44:26.197Z,11.11
2017-04-05T01:45:07.074Z,11.1
2017-04-05T01:45:47.950Z,11.25
2017-04-05T01:46:28.833Z,11.12
2017-04-05T01:47:09.713Z,11.08
2017-04-05T01:47:50.602Z,11.22
2017-04-05T01:48:31.473Z,11.08
2017-04-05T01:49:12.357Z,11.07
2017-04-05T01:49:53.246Z,11.04
2017-04-05T01:50:34.114Z,11.1
2017-04-05T01:51:14.999Z,11.08
2017-04-05T01:51:55.881Z,11.11
2017-04-05T01:52:36.765Z,11.02
2017-04-05T01:53:17.648Z,11.07
2017-04-05T01:53:58.531Z,11.12
2017-04-05T01:54:39.423Z,11.02
2017-04-05T01:55:20.322Z,11.12
2017-04-05T01:56:01.204Z,11.08
2017-04-05T01:56:42.089Z,11.1
2017-04-05T01:57:22.970Z,11.05
2017-04-05T01:58:03.854Z,11.08
2017-04-05T01:58:44.737Z,11.04
2017-04-05T01:59:25.619Z,10.96
2017-04-05T02:00:06.508Z,10.97
2017-04-05T02:00:47.393Z,10.99
2017-04-05T02:01:28.278Z,11.07
2017-04-05T02:02:09.168Z,11.1
2017-04-05T02:02:50.047Z,11.07
2017-04-05T02:03:30.932Z,11.05
2017-04-05T02:04:11.808Z,11.18
2017-04-05T02:04:52.689Z,11.07
2017-04-05T02:05:33.570Z,10.99
2017-04-05T02:06:14.456Z,10.97
2017-04-05T02:06:55.337Z,10.96
2017-04-05T02:07:36.223Z,10.93
2017-04-05T02:08:17.107Z,10.87
2017-04-05T02:08:57.990Z,10.82
2017-04-05T02:09:38.870Z,10.84
2017-04-05T02:10:19.772Z,10.89
2017-04-05T02:11:00.651Z,10.97
2017-04-05T02:11:41.539Z,10.99
2017-04-05T02:12:22.413Z,10.89
2017-04-05T02:13:03.332Z,10.94
2017-04-05T02:13:44.216Z,10.99
2017-04-05T02:14:25.085Z,10.96
2017-04-05T02:15:05.962Z,10.99
2017-04-05T02:15:46.897Z,10.99
2017-04-05T02:16:27.763Z,10.96
2017-04-05T02:17:08.639Z,11.02
2017-04-05T02:17:49.530Z,10.97
2017-04-05T02:18:30.408Z,11.04
2017-04-05T02:19:11.276Z,11
2017-04-05T02:19:52.164Z,10.94
2017-04-05T02:20:33.077Z,10.92
2017-04-05T02:21:13.958Z,10.89
2017-04-05T02:21:54.827Z,10.84
2017-04-05T02:22:35.713Z,10.87
2017-04-05T02:23:16.597Z,11.02
2017-04-05T02:23:57.491Z,10.93
2017-04-05T02:24:38.373Z,11.04
2017-04-05T02:25:19.255Z,10.94
2017-04-05T02:26:00.138Z,11.02
2017-04-05T02:26:41.023Z,10.97
2017-04-05T02:27:21.907Z,10.96
2017-04-05T02:28:02.790Z,10.94
2017-04-05T02:28:43.681Z,10.89
2017-04-05T02:29:24.560Z,10.93
2017-04-05T02:30:05.444Z,10.93
2017-04-05T02:30:46.331Z,10.94
2017-04-05T02:31:27.214Z,10.96
2017-04-05T02:32:08.097Z,10.97
2017-04-05T02:32:48.981Z,10.97
2017-04-05T02:33:29.874Z,10.89
2017-04-05T02:34:10.753Z,10.92
2017-04-05T02:34:51.637Z,10.94
2017-04-05T02:35:32.545Z,10.97
2017-04-05T02:36:13.426Z,11
2017-04-05T02:36:54.309Z,10.92
2017-04-05T02:37:35.192Z,10.97
2017-04-05T02:38:16.072Z,10.89
2017-04-05T02:38:56.957Z,10.92
2017-04-05T02:39:37.838Z,10.96
2017-04-05T02:40:18.725Z,10.94
2017-04-05T02:40:59.612Z,10.96
2017-04-05T02:41:40.493Z,10.87
2017-04-05T02:42:21.374Z,10.89
2017-04-05T02:43:02.254Z,10.87
2017-04-05T02:43:43.148Z,10.87
2017-04-05T02:44:24.089Z,10.92
2017-04-05T02:45:04.984Z,10.96
2017-04-05T02:45:45.866Z,10.93
2017-04-05T02:46:26.753Z,10.9
2017-04-05T02:47:07.630Z,10.87
2017-04-05T02:47:48.512Z,10.94
2017-04-05T02:48:29.398Z,10.93
2017-04-05T02:49:10.277Z,10.89
2017-04-05T02:49:51.158Z,10.99
2017-04-05T02:50:32.030Z,10.89
2017-04-05T02:51:12.913Z,10.99
2017-04-05T02:51:53.793Z,10.97
2017-04-05T02:52:34.673Z,10.96
2017-04-05T02:53:15.571Z,11.08
2017-04-05T02:53:56.436Z,11.1
2017-04-05T02:54:37.373Z,11.11
2017-04-05T02:55:18.302Z,11.11
2017-04-05T02:55:59.183Z,11.1
2017-04-05T02:56:40.075Z,11.1
2017-04-05T02:57:20.953Z,10.94
2017-04-05T02:58:01.831Z,11.07
2017-04-05T02:58:42.718Z,11.05
2017-04-05T02:59:23.601Z,11.07
2017-04-05T03:00:04.482Z,11.1
2017-04-05T03:00:45.366Z,11.11
2017-04-05T03:01:26.269Z,11.08
2017-04-05T03:02:07.148Z,11.02
2017-04-05T03:02:48.029Z,10.96
2017-04-05T03:03:28.970Z,10.96
2017-04-05T03:04:09.851Z,10.93
2017-04-05T03:04:50.738Z,10.93
2017-04-05T03:05:31.622Z,11
2017-04-05T03:06:12.502Z,10.87
2017-04-05T03:06:53.381Z,10.9
2017-04-05T03:07:34.262Z,10.94
2017-04-05T03:08:15.142Z,10.79
2017-04-05T03:08:56.028Z,10.87
2017-04-05T03:09:36.906Z,10.89
2017-04-05T03:10:17.792Z,10.96
2017-04-05T03:10:58.691Z,10.99
2017-04-05T03:11:39.569Z,11
2017-04-05T03:12:20.460Z,10.93
2017-04-05T03:13:01.350Z,10.79
2017-04-05T03:13:42.229Z,10.9
2017-04-05T03:14:23.103Z,10.89
2017-04-05T03:15:03.987Z,10.82
2017-04-05T03:15:44.868Z,10.89
2017-04-05T03:16:25.750Z,10.9
2017-04-05T03:17:06.634Z,10.81
2017-04-05T03:17:47.514Z,10.84
2017-04-05T03:18:28.390Z,10.79
2017-04-05T03:19:09.269Z,10.9
2017-04-05T03:19:50.149Z,10.87
2017-04-05T03:20:31.053Z,10.92
2017-04-05T03:21:11.908Z,10.94
2017-04-05T03:21:52.796Z,10.84
2017-04-05T03:22:33.680Z,10.82
2017-04-05T03:23:14.604Z,10.93
2017-04-05T03:23:55.489Z,10.89
2017-04-05T03:24:36.374Z,10.9
2017-04-05T03:25:17.252Z,10.93
2017-04-05T03:25:58.138Z,10.92
2017-04-05T03:26:39.025Z,10.9
2017-04-05T03:27:19.905Z,10.97
2017-04-05T03:28:00.787Z,10.87
2017-04-05T03:28:41.669Z,10.82
2017-04-05T03:29:22.549Z,10.9
2017-04-05T03:30:03.437Z,10.87
2017-04-05T03:30:44.318Z,10.92
2017-04-05T03:31:25.202Z,10.87
2017-04-05T03:32:06.095Z,10.82
2017-04-05T03:32:46.973Z,10.94
2017-04-05T03:33:27.858Z,10.97
2017-04-05T03:34:08.736Z,10.97
2017-04-05T03:34:49.620Z,10.93
2017-04-05T03:35:30.508Z,10.87
2017-04-05T03:36:11.388Z,10.9
2017-04-05T03:36:52.270Z,10.97
2017-04-05T03:37:33.159Z,10.92
2017-04-05T03:38:14.043Z,10.92
2017-04-05T03:38:54.917Z,10.87
2017-04-05T03:39:35.801Z,10.96
2017-04-05T03:40:16.682Z,10.89
2017-04-05T03:40:57.573Z,10.82
2017-04-05T03:41:38.452Z,10.84
2017-04-05T03:42:19.335Z,10.79
2017-04-05T03:43:00.220Z,10.81
2017-04-05T03:43:41.108Z,10.87
2017-04-05T03:44:22.001Z,10.82
2017-04-05T03:45:02.864Z,10.82
2017-04-05T03:45:43.768Z,10.81
2017-04-05T03:46:24.656Z,10.89
2017-04-05T03:47:05.529Z,10.92
2017-04-05T03:47:46.411Z,10.87
2017-04-05T03:48:27.295Z,10.82
2017-04-05T03:49:08.178Z,10.89
2017-04-05T03:49:49.060Z,10.93
2017-04-05T03:50:29.940Z,10.94
2017-04-05T03:51:10.818Z,10.92
2017-04-05T03:51:51.708Z,10.86
2017-04-05T03:52:32.589Z,10.87
2017-04-05T03:53:13.470Z,10.86
2017-04-05T03:53:54.388Z,10.94
2017-04-05T03:54:35.279Z,10.93
2017-04-05T03:55:16.172Z,10.9
2017-04-05T03:55:57.058Z,10.89
2017-04-05T03:56:37.940Z,10.84
2017-04-05T03:57:18.817Z,10.82
2017-04-05T03:57:59.703Z,10.68
2017-04-05T03:58:40.591Z,10.76
2017-04-05T03:59:21.471Z,10.86
2017-04-05T04:00:02.362Z,10.79
2017-04-05T04:00:43.248Z,10.89
2017-04-05T04:01:24.129Z,10.94
2017-04-05T04:02:05.004Z,10.89
2017-04-05T04:02:45.888Z,10.94
2017-04-05T04:03:26.773Z,10.97
2017-04-05T04:04:07.654Z,10.87
2017-04-05T04:04:48.537Z,10.93
2017-04-05T04:05:29.425Z,10.94
2017-04-05T04:06:10.307Z,10.97
2017-04-05T04:06:51.183Z,10.92
2017-04-05T04:07:32.059Z,10.97
2017-04-05T04:08:12.948Z,10.96
2017-04-05T04:08:53.827Z,10.94
2017-04-05T04:09:34.705Z,10.87
2017-04-05T04:10:15.584Z,11
2017-04-05T04:10:56.462Z,10.99
2017-04-05T04:11:37.340Z,10.96
2017-04-05T04:12:18.231Z,10.94
2017-04-05T04:12:59.114Z,10.97
2017-04-05T04:13:39.994Z,11
2017-04-05T04:14:20.878Z,10.9
2017-04-05T04:15:01.765Z,10.84
2017-04-05T04:15:42.647Z,10.82
2017-04-05T04:16:23.523Z,10.87
2017-04-05T04:17:04.421Z,10.87
2017-04-05T04:17:45.298Z,10.79
2017-04-05T04:18:26.183Z,10.81
2017-04-05T04:19:07.064Z,10.82
2017-04-05T04:19:47.950Z,10.92
2017-04-05T04:20:28.858Z,10.76
2017-04-05T04:21:09.738Z,10.79
2017-04-05T04:21:50.628Z,10.82
2017-04-05T04:22:31.518Z,10.82
2017-04-05T04:23:12.398Z,10.82
2017-04-05T04:23:53.278Z,10.89
2017-04-05T04:24:34.155Z,10.9
2017-04-05T04:25:15.133Z,10.93
2017-04-05T04:25:56.027Z,10.97
2017-04-05T04:26:36.902Z,10.87
2017-04-05T04:27:17.781Z,10.93
2017-04-05T04:27:58.669Z,10.9
2017-04-05T04:28:39.550Z,10.94
2017-04-05T04:29:20.439Z,10.99
2017-04-05T04:30:01.328Z,10.94
2017-04-05T04:30:42.216Z,11
2017-04-05T04:31:23.097Z,11.02
2017-04-05T04:32:03.983Z,10.96
2017-04-05T04:32:44.858Z,11.02
2017-04-05T04:33:25.748Z,10.97
2017-04-05T04:34:06.618Z,11.04
2017-04-05T04:34:47.492Z,11
2017-04-05T04:35:28.387Z,11.05
2017-04-05T04:36:09.271Z,11
2017-04-05T04:36:50.161Z,11.08
2017-04-05T04:37:31.047Z,11.04
2017-04-05T04:38:11.922Z,11.08
2017-04-05T04:38:52.815Z,11.02
2017-04-05T04:39:33.693Z,11.11
2017-04-05T04:40:14.578Z,11.1
2017-04-05T04:40:55.461Z,11.12
2017-04-05T04:41:36.342Z,11.02
2017-04-05T04:42:17.210Z,11.15
2017-04-05T04:42:58.096Z,11.02
2017-04-05T04:43:38.998Z,11.19
2017-04-05T04:44:19.879Z,11.1
2017-04-05T04:45:00.750Z,11.07
2017-04-05T04:45:41.636Z,11.11
2017-04-05T04:46:22.526Z,11.12
2017-04-05T04:47:03.408Z,11.1
2017-04-05T04:47:44.291Z,11
2017-04-05T04:48:25.151Z,11.1
2017-04-05T04:49:06.015Z,11.23
2017-04-05T04:49:46.894Z,11.18
2017-04-05T04:50:27.779Z,11.04
2017-04-05T04:51:08.665Z,11.04
2017-04-05T04:51:49.562Z,11.05
2017-04-05T04:52:30.455Z,11.15
2017-04-05T04:53:11.345Z,10.99
2017-04-05T04:53:52.225Z,11.08
2017-04-05T04:54:33.150Z,11.11
2017-04-05T04:55:14.002Z,11.14
2017-04-05T04:55:54.882Z,11.18
2017-04-05T04:56:35.766Z,11.05
2017-04-05T04:57:16.639Z,11.08
2017-04-05T04:57:57.576Z,11.08
2017-04-05T04:58:38.401Z,11.08
2017-04-05T04:59:19.282Z,11.08
2017-04-05T05:00:00.153Z,11.08
2017-04-05T05:00:41.026Z,11.1
2017-04-05T05:01:21.914Z,11.07
2017-04-05T05:02:02.797Z,11.1
2017-04-05T05:02:43.676Z,11.11
2017-04-05T05:03:24.554Z,11.08
2017-04-05T05:04:05.447Z,11.11
2017-04-05T05:04:46.330Z,11.11
2017-04-05T05:05:27.208Z,11.15
2017-04-05T05:06:08.085Z,11.11
2017-04-05T05:06:48.997Z,11.14
2017-04-05T05:07:29.987Z,11.18
2017-04-05T05:08:10.865Z,11.14
2017-04-05T05:08:51.773Z,11.17
2017-04-05T05:09:32.632Z,11.17
2017-04-05T05:10:13.519Z,11.1
2017-04-05T05:10:54.401Z,11.07
2017-04-05T05:11:35.284Z,11.08
2017-04-05T05:12:16.195Z,11.19
2017-04-05T05:12:57.073Z,11.18
2017-04-05T05:13:37.964Z,11.11
2017-04-05T05:14:18.844Z,11.17
2017-04-05T05:14:59.727Z,11.22
2017-04-05T05:15:40.597Z,11.14
2017-04-05T05:16:21.481Z,11.25
2017-04-05T05:17:02.363Z,11.22
2017-04-05T05:17:43.258Z,11.11
2017-04-05T05:18:24.142Z,11.18
2017-04-05T05:19:05.019Z,11.14
2017-04-05T05:19:45.917Z,11.1
2017-04-05T05:20:26.794Z,11.11
2017-04-05T05:21:07.675Z,11.11
2017-04-05T05:21:48.567Z,11.07
2017-04-05T05:22:29.451Z,11.12
2017-04-05T05:23:10.327Z,11.12
2017-04-05T05:23:51.201Z,11.25
2017-04-05T05:24:32.126Z,11.19
2017-04-05T05:25:13.004Z,11.12
2017-04-05T05:25:53.890Z,11.17
2017-04-05T05:26:34.770Z,11.18
2017-04-05T05:27:15.661Z,11.18
2017-04-05T05:27:56.537Z,11.12
2017-04-05T05:28:37.423Z,11.19
2017-04-05T05:29:18.311Z,11.1
2017-04-05T05:29:59.201Z,11.22
2017-04-05T05:30:40.078Z,11.17
2017-04-05T05:31:20.961Z,11.29
2017-04-05T05:32:01.842Z,11.17
2017-04-05T05:32:42.729Z,11.27
2017-04-05T05:33:23.607Z,11.23
2017-04-05T05:34:04.495Z,11.25
2017-04-05T05:34:45.375Z,11.27
2017-04-05T05:35:26.259Z,11.14
2017-04-05T05:36:07.167Z,11.15
2017-04-05T05:36:48.045Z,11.19
2017-04-05T05:37:28.956Z,11.19
2017-04-05T05:38:09.835Z,11.22
2017-04-05T05:38:50.719Z,11.27
2017-04-05T05:39:31.599Z,11.23
2017-04-05T05:40:12.491Z,11.23
2017-04-05T05:40:53.383Z,11.18
2017-04-05T05:41:34.276Z,11.17
2017-04-05T05:42:15.178Z,11.17
2017-04-05T05:42:56.061Z,11.22
2017-04-05T05:43:36.946Z,11.25
2017-04-05T05:44:17.827Z,11.15
2017-04-05T05:44:58.722Z,11.22
2017-04-05T05:45:39.604Z,11.19
2017-04-05T05:46:20.486Z,11.25
2017-04-05T05:47:01.375Z,11.22
2017-04-05T05:47:42.252Z,11.17
2017-04-05T05:48:23.137Z,11.17
2017-04-05T05:49:04.018Z,11.17
2017-04-05T05:49:44.904Z,11.17
2017-04-05T05:50:25.787Z,11.22
2017-04-05T05:51:06.669Z,11.14
2017-04-05T05:51:47.557Z,11.17
2017-04-05T05:52:28.439Z,11.25
2017-04-05T05:53:09.319Z,11.27
2017-04-05T05:53:50.203Z,11.32
2017-04-05T05:54:31.079Z,11.18
2017-04-05T05:55:11.958Z,11.14
2017-04-05T05:55:52.835Z,11.27
2017-04-05T05:56:33.724Z,11.22
2017-04-05T05:57:14.622Z,11.25
2017-04-05T05:57:55.505Z,11.22
2017-04-05T05:58:36.379Z,11.23
2017-04-05T05:59:17.271Z,11.23
2017-04-05T05:59:58.153Z,11.32
2017-04-05T06:00:39.048Z,11.29
2017-04-05T06:01:19.921Z,11.29
2017-04-05T06:02:00.810Z,11.25
2017-04-05T06:02:41.704Z,11.29
2017-04-05T06:03:22.571Z,11.29
2017-04-05T06:04:03.448Z,11.44
2017-04-05T06:04:44.344Z,11.44
2017-04-05T06:05:25.226Z,11.36
2017-04-05T06:06:06.106Z,11.32
2017-04-05T06:06:46.998Z,11.41
2017-04-05T06:07:27.883Z,11.41
2017-04-05T06:08:08.760Z,11.41
2017-04-05T06:08:49.650Z,11.43
2017-04-05T06:09:32.490Z,11.37
2017-04-05T06:10:13.383Z,11.47
2017-04-05T06:10:54.261Z,11.44
2017-04-05T06:11:35.141Z,11.4
2017-04-05T06:12:16.071Z,11.33
2017-04-05T06:12:56.950Z,11.41
2017-04-05T06:13:37.855Z,11.48
2017-04-05T06:14:18.732Z,11.54
2017-04-05T06:14:59.611Z,11.5
2017-04-05T06:15:40.500Z,11.43
2017-04-05T06:16:21.385Z,11.52
2017-04-05T06:17:02.267Z,11.43
2017-04-05T06:17:43.149Z,11.35
2017-04-05T06:18:24.039Z,11.35
2017-04-05T06:19:04.929Z,11.37
2017-04-05T06:19:45.857Z,11.43
2017-04-05T06:20:26.729Z,11.45
2017-04-05T06:21:07.615Z,11.45
2017-04-05T06:21:48.500Z,11.47
2017-04-05T06:22:29.411Z,11.45
2017-04-05T06:23:10.292Z,11.51
2017-04-05T06:23:51.178Z,11.54
2017-04-05T06:24:32.061Z,11.52
2017-04-05T06:25:12.954Z,11.57
2017-04-05T06:25:53.839Z,11.52
2017-04-05T06:26:34.719Z,11.62
2017-04-05T06:28:07.949Z,11.75
2017-04-05T06:28:48.816Z,11.69
2017-04-05T06:29:29.696Z,11.78
2017-04-05T06:30:10.573Z,11.78
2017-04-05T06:30:51.455Z,11.84
2017-04-05T06:31:32.336Z,11.8
2017-04-05T06:32:13.214Z,11.86
2017-04-05T06:32:54.099Z,11.8
2017-04-05T06:33:34.973Z,11.84
2017-04-05T06:34:15.858Z,11.88
2017-04-05T06:34:56.748Z,11.84
2017-04-05T06:35:37.632Z,11.81
2017-04-05T06:36:18.509Z,11.86
2017-04-05T06:36:59.385Z,11.88
2017-04-05T06:37:40.264Z,11.91
2017-04-05T06:38:21.153Z,12.06
2017-04-05T06:39:02.085Z,11.99
2017-04-05T06:39:42.963Z,11.97
2017-04-05T06:40:23.838Z,11.9
2017-04-05T06:41:04.709Z,11.86
2017-04-05T06:41:45.591Z,11.83
2017-04-05T06:42:26.477Z,11.8
2017-04-05T06:43:07.355Z,11.81
2017-04-05T06:43:48.231Z,11.72
2017-04-05T06:44:29.098Z,11.69
2017-04-05T06:45:09.977Z,11.81
2017-04-05T06:45:50.855Z,11.87
2017-04-05T06:46:31.743Z,11.84
2017-04-05T06:47:12.621Z,11.88
2017-04-05T06:47:53.570Z,11.83
2017-04-05T06:48:34.422Z,11.8
2017-04-05T06:49:15.319Z,11.7
2017-04-05T06:49:56.181Z,11.75
2017-04-05T06:50:37.063Z,11.77
2017-04-05T06:51:17.954Z,11.8
2017-04-05T06:51:58.832Z,11.87
2017-04-05T06:52:39.711Z,11.87
2017-04-05T06:53:20.609Z,11.83
2017-04-05T06:54:01.489Z,11.9
2017-04-05T06:54:42.371Z,11.94
2017-04-05T06:55:23.254Z,11.87
2017-04-05T06:56:04.139Z,11.86
2017-04-05T06:56:45.023Z,11.97
2017-04-05T06:57:25.914Z,11.94
2017-04-05T06:58:06.783Z,12
2017-04-05T06:58:47.666Z,12
2017-04-05T06:59:28.555Z,11.99
2017-04-05T07:00:09.438Z,12.1
2017-04-05T07:00:50.305Z,11.97
2017-04-05T07:01:31.196Z,12.03
2017-04-05T07:02:12.082Z,12.07
2017-04-05T07:02:52.973Z,12.13
2017-04-05T07:03:33.857Z,12.12
2017-04-05T07:04:14.737Z,12.1
2017-04-05T07:04:55.625Z,12.15
2017-04-05T07:05:36.495Z,12.1
2017-04-05T07:06:17.382Z,12.02
2017-04-05T07:06:58.264Z,11.94
2017-04-05T07:07:39.156Z,12.04
2017-04-05T07:08:20.032Z,12.15
2017-04-05T07:09:00.907Z,12.03
2017-04-05T07:09:41.790Z,12.04
2017-04-05T07:10:22.673Z,12.04
2017-04-05T07:11:03.554Z,12.09
2017-04-05T07:11:44.430Z,12.22
2017-04-05T07:12:25.308Z,12.18
2017-04-05T07:13:06.194Z,12.18
2017-04-05T07:13:47.082Z,12.07
2017-04-05T07:14:27.986Z,12.12
2017-04-05T07:15:08.918Z,12.2
2017-04-05T07:15:49.778Z,12.13
2017-04-05T07:16:30.661Z,12.15
2017-04-05T07:17:11.545Z,12.04
2017-04-05T07:17:52.452Z,12.18
2017-04-05T07:18:33.323Z,12.06
2017-04-05T07:19:14.211Z,12.07
2017-04-05T07:19:55.103Z,12.1
2017-04-05T07:20:35.984Z,12.15
2017-04-05T07:21:16.852Z,12.18
2017-04-05T07:21:57.733Z,12.21
2017-04-05T07:22:38.618Z,12.17
2017-04-05T07:23:19.522Z,12.22
2017-04-05T07:24:00.404Z,12.28
2017-04-05T07:24:41.282Z,12.29
2017-04-05T07:25:22.159Z,12.27
2017-04-05T07:26:03.048Z,12.32
2017-04-05T07:26:43.924Z,12.37
2017-04-05T07:27:24.798Z,12.32
2017-04-05T07:28:05.678Z,12.31
2017-04-05T07:28:46.561Z,12.36
2017-04-05T07:29:27.442Z,12.39
2017-04-05T07:30:08.325Z,12.35
2017-04-05T07:30:49.209Z,12.4
2017-04-05T07:31:30.089Z,12.36
2017-04-05T07:32:10.976Z,12.45
2017-04-05T07:32:51.863Z,12.37
2017-04-05T07:33:32.759Z,12.37
2017-04-05T07:34:13.629Z,12.32
2017-04-05T07:34:54.509Z,12.37
2017-04-05T07:35:35.385Z,12.36
2017-04-05T07:36:16.270Z,12.31
2017-04-05T07:36:57.162Z,12.35
2017-04-05T07:37:38.041Z,12.37
2017-04-05T07:38:18.926Z,12.45
2017-04-05T07:38:59.812Z,12.53
2017-04-05T07:39:40.695Z,12.45
2017-04-05T07:40:21.576Z,12.45
2017-04-05T07:41:02.471Z,12.53
2017-04-05T07:41:43.346Z,12.55
2017-04-05T07:42:24.237Z,12.61
2017-04-05T07:43:05.109Z,12.68
2017-04-05T07:44:43.539Z,12.7
2017-04-05T07:45:24.405Z,12.68
2017-04-05T07:46:05.535Z,12.61
2017-04-05T07:46:46.509Z,12.58
2017-04-05T07:47:27.391Z,12.6
2017-04-05T07:48:08.269Z,12.72
2017-04-05T07:48:49.154Z,12.75
2017-04-05T07:49:30.059Z,12.57
2017-04-05T07:50:10.945Z,12.58
2017-04-05T07:50:51.820Z,12.5
2017-04-05T07:51:32.703Z,12.53
2017-04-05T07:52:13.587Z,12.61
2017-04-05T07:53:55.444Z,12.68
2017-04-05T07:54:37.026Z,12.68
2017-04-05T07:56:10.690Z,12.79
2017-04-05T07:57:44.452Z,12.8
2017-04-05T07:58:25.359Z,12.82
2017-04-05T07:59:06.243Z,12.76
2017-04-05T07:59:47.133Z,12.85
2017-04-05T08:00:28.051Z,12.82
2017-04-05T08:01:08.943Z,12.93
2017-04-05T08:01:49.827Z,12.94
2017-04-05T08:02:30.710Z,12.85
2017-04-05T08:03:11.592Z,12.94
2017-04-05T08:03:52.470Z,12.97
2017-04-05T08:04:33.359Z,13.01
2017-04-05T08:05:14.245Z,12.87
2017-04-05T08:05:55.120Z,12.85
2017-04-05T08:06:36.003Z,12.93
2017-04-05T08:07:16.894Z,12.94
2017-04-05T08:07:57.780Z,12.98
2017-04-05T08:08:38.659Z,13.12
2017-04-05T08:09:19.558Z,13.3
2017-04-05T08:10:00.457Z,13.2
2017-04-05T08:10:41.320Z,13.38
2017-04-05T08:11:22.199Z,13.63
2017-04-05T08:12:03.088Z,13.7
2017-04-05T08:12:43.971Z,13.71
2017-04-05T08:13:24.862Z,13.79
2017-04-05T08:14:05.744Z,13.77
2017-04-05T08:14:46.642Z,13.75
2017-04-05T08:15:27.529Z,13.85
2017-04-05T08:16:08.417Z,13.92
2017-04-05T08:16:49.309Z,13.83
2017-04-05T08:17:30.197Z,13.71
2017-04-05T08:18:11.082Z,13.7
2017-04-05T08:18:51.967Z,13.63
2017-04-05T08:19:32.862Z,13.65
2017-04-05T08:20:13.749Z,13.83
2017-04-05T08:20:54.636Z,13.79
2017-04-05T08:21:35.534Z,13.89
2017-04-05T08:22:16.437Z,13.86
2017-04-05T08:22:57.372Z,13.78
2017-04-05T08:23:38.248Z,13.7
2017-04-05T08:24:19.130Z,13.7
2017-04-05T08:25:00.024Z,13.63
2017-04-05T08:25:40.909Z,13.47
2017-04-05T08:26:21.786Z,13.12
2017-04-05T08:27:02.658Z,13.23
2017-04-05T08:27:43.542Z,13.27
2017-04-05T08:28:24.475Z,13.23
2017-04-05T08:29:05.364Z,13.19
2017-04-05T08:29:46.241Z,13.13
2017-04-05T08:30:27.184Z,13.2
2017-04-05T08:31:08.066Z,13.3
2017-04-05T08:31:48.944Z,13.15
2017-04-05T08:32:29.821Z,13.13
2017-04-05T08:33:10.714Z,13.16
2017-04-05T08:33:51.603Z,13.19
2017-04-05T08:34:32.477Z,13.03
2017-04-05T08:35:13.355Z,13.12
2017-04-05T08:35:54.232Z,13.15
2017-04-05T08:36:35.113Z,13.15
2017-04-05T08:37:16.005Z,13
2017-04-05T08:37:56.890Z,12.98
2017-04-05T08:38:37.773Z,13.15
2017-04-05T08:39:18.669Z,13.31
2017-04-05T08:39:59.549Z,13.28
2017-04-05T08:40:40.429Z,13.2
2017-04-05T08:41:21.309Z,13.31
2017-04-05T08:42:02.202Z,13.33
2017-04-05T08:42:43.080Z,13.35
2017-04-05T08:43:23.967Z,13.22
2017-04-05T08:44:04.886Z,13.22
2017-04-05T08:44:45.770Z,13.13
2017-04-05T08:45:26.668Z,13.15
2017-04-05T08:46:07.563Z,13.12
2017-04-05T08:46:48.450Z,13.04
2017-04-05T08:47:29.336Z,13.2
2017-04-05T08:48:10.228Z,13.28
2017-04-05T08:48:51.109Z,13.38
2017-04-05T08:49:31.997Z,13.68
2017-04-05T08:50:12.892Z,13.89
2017-04-05T08:50:53.782Z,14.04
2017-04-05T08:51:34.667Z,13.83
2017-04-05T08:52:15.547Z,14
2017-04-05T08:52:56.434Z,14.04
2017-04-05T08:53:37.329Z,14.08